sensor_id;sensor_type;location;lat;lon;timestamp;pressure;altitude;pressure_sealevel;temperature;humidity
48846;BME280;34665;51.886;5.436;2022-11-20T00:00:50;101191.63;;;2.41;100.00
48846;BME280;34665;51.886;5.436;2022-11-20T00:03:15;101181.09;;;2.41;100.00
48846;BME280;34665;51.886;5.436;2022-11-20T00:05:42;101176.34;;;2.35;100.00
48846;BME280;34665;51.886;5.436;2022-11-20T00:08:08;101176.78;;;2.40;100.00
48846;BME280;34665;51.886;5.436;2022-11-20T00:10:41;101179.16;;;2.43;100.00
48846;BME280;34665;51.886;5.436;2022-11-20T00:13:06;101175.25;;;2.48;100.00
48846;BME280;34665;51.886;5.436;2022-11-20T00:15:32;101183.88;;;2.50;100.00
48846;BME280;34665;51.886;5.436;2022-11-20T00:17:58;101183.78;;;2.61;100.00
48846;BME280;34665;51.886;5.436;2022-11-20T00:20:24;101178.09;;;2.56;100.00
48846;BME280;34665;51.886;5.436;2022-11-20T00:22:50;101176.09;;;2.17;100.00
48846;BME280;34665;51.886;5.436;2022-11-20T00:25:17;101174.66;;;2.03;100.00
48846;BME280;34665;51.886;5.436;2022-11-20T00:27:43;101185.66;;;2.08;100.00
48846;BME280;34665;51.886;5.436;2022-11-20T00:30:08;101187.72;;;2.36;100.00
48846;BME280;34665;51.886;5.436;2022-11-20T00:32:35;101178.47;;;2.10;100.00
48846;BME280;34665;51.886;5.436;2022-11-20T00:35:00;101169.78;;;1.77;100.00
48846;BME280;34665;51.886;5.436;2022-11-20T00:37:26;101162.41;;;1.71;100.00
48846;BME280;34665;51.886;5.436;2022-11-20T00:39:51;101163.19;;;2.14;100.00
48846;BME280;34665;51.886;5.436;2022-11-20T00:42:17;101161.69;;;2.62;100.00
48846;BME280;34665;51.886;5.436;2022-11-20T00:44:42;101156.19;;;2.34;100.00
48846;BME280;34665;51.886;5.436;2022-11-20T00:47:08;101166.06;;;2.32;100.00
48846;BME280;34665;51.886;5.436;2022-11-20T00:49:34;101166.13;;;1.90;100.00
48846;BME280;34665;51.886;5.436;2022-11-20T00:51:59;101155.31;;;2.24;100.00
48846;BME280;34665;51.886;5.436;2022-11-20T00:54:25;101144.91;;;1.70;100.00
48846;BME280;34665;51.886;5.436;2022-11-20T00:56:53;101153.31;;;1.85;100.00
48846;BME280;34665;51.886;5.436;2022-11-20T00:59:19;101153.78;;;2.21;100.00
48846;BME280;34665;51.886;5.436;2022-11-20T01:01:44;101155.88;;;2.27;100.00
48846;BME280;34665;51.886;5.436;2022-11-20T01:04:10;101153.75;;;2.11;100.00
48846;BME280;34665;51.886;5.436;2022-11-20T01:06:38;101152.34;;;2.17;100.00
48846;BME280;34665;51.886;5.436;2022-11-20T01:09:09;101155.41;;;2.12;100.00
48846;BME280;34665;51.886;5.436;2022-11-20T01:11:38;101155.84;;;2.18;100.00
48846;BME280;34665;51.886;5.436;2022-11-20T01:14:06;101153.69;;;2.02;100.00
48846;BME280;34665;51.886;5.436;2022-11-20T01:16:35;101156.38;;;2.11;100.00
48846;BME280;34665;51.886;5.436;2022-11-20T01:19:03;101154.81;;;2.09;100.00
48846;BME280;34665;51.886;5.436;2022-11-20T01:21:34;101155.91;;;1.96;100.00
48846;BME280;34665;51.886;5.436;2022-11-20T01:24:03;101156.97;;;1.94;100.00
48846;BME280;34665;51.886;5.436;2022-11-20T01:26:31;101159.03;;;2.11;100.00
48846;BME280;34665;51.886;5.436;2022-11-20T01:28:58;101160.69;;;2.12;100.00
48846;BME280;34665;51.886;5.436;2022-11-20T01:31:30;101153.47;;;2.14;100.00
48846;BME280;34665;51.886;5.436;2022-11-20T01:33:58;101146.53;;;2.13;100.00
48846;BME280;34665;51.886;5.436;2022-11-20T01:36:26;101150.41;;;2.09;100.00
48846;BME280;34665;51.886;5.436;2022-11-20T01:38:56;101148.47;;;2.11;100.00
48846;BME280;34665;51.886;5.436;2022-11-20T01:41:24;101150.13;;;2.12;100.00
48846;BME280;34665;51.886;5.436;2022-11-20T01:44:11;101150.47;;;2.29;100.00
48846;BME280;34665;51.886;5.436;2022-11-20T01:46:40;101153.50;;;1.93;100.00
48846;BME280;34665;51.886;5.436;2022-11-20T01:50:08;101154.50;;;2.02;100.00
48846;BME280;34665;51.886;5.436;2022-11-20T01:52:50;101141.53;;;2.10;100.00
48846;BME280;34665;51.886;5.436;2022-11-20T01:55:22;101145.84;;;1.90;100.00
48846;BME280;34665;51.886;5.436;2022-11-20T01:57:49;101140.97;;;2.17;100.00
48846;BME280;34665;51.886;5.436;2022-11-20T02:00:17;101131.03;;;1.68;100.00
48846;BME280;34665;51.886;5.436;2022-11-20T02:02:48;101127.34;;;2.11;100.00
48846;BME280;34665;51.886;5.436;2022-11-20T02:08:06;101145.53;;;1.83;100.00
48846;BME280;34665;51.886;5.436;2022-11-20T02:10:34;101144.31;;;1.88;100.00
48846;BME280;34665;51.886;5.436;2022-11-20T02:13:00;101135.88;;;1.94;100.00
48846;BME280;34665;51.886;5.436;2022-11-20T02:15:46;101133.34;;;1.92;100.00
48846;BME280;34665;51.886;5.436;2022-11-20T02:18:14;101134.94;;;1.74;100.00
48846;BME280;34665;51.886;5.436;2022-11-20T02:20:43;101136.25;;;1.89;100.00
48846;BME280;34665;51.886;5.436;2022-11-20T02:23:19;101133.41;;;2.02;100.00
48846;BME280;34665;51.886;5.436;2022-11-20T02:25:51;101124.25;;;1.96;100.00
48846;BME280;34665;51.886;5.436;2022-11-20T02:28:18;101120.84;;;2.15;100.00
48846;BME280;34665;51.886;5.436;2022-11-20T02:30:45;101117.72;;;2.00;100.00
48846;BME280;34665;51.886;5.436;2022-11-20T02:33:11;101120.75;;;1.96;100.00
48846;BME280;34665;51.886;5.436;2022-11-20T02:35:42;101113.97;;;2.03;100.00
48846;BME280;34665;51.886;5.436;2022-11-20T02:38:08;101122.47;;;2.07;100.00
48846;BME280;34665;51.886;5.436;2022-11-20T02:40:34;101128.44;;;2.50;100.00
48846;BME280;34665;51.886;5.436;2022-11-20T02:42:59;101136.44;;;2.28;100.00
48846;BME280;34665;51.886;5.436;2022-11-20T02:45:25;101132.69;;;2.21;100.00
48846;BME280;34665;51.886;5.436;2022-11-20T02:47:51;101125.41;;;2.13;100.00
48846;BME280;34665;51.886;5.436;2022-11-20T02:50:17;101137.56;;;1.95;100.00
48846;BME280;34665;51.886;5.436;2022-11-20T02:52:42;101150.69;;;1.85;100.00
48846;BME280;34665;51.886;5.436;2022-11-20T02:55:09;101150.50;;;2.39;100.00
48846;BME280;34665;51.886;5.436;2022-11-20T02:57:34;101155.63;;;2.31;100.00
48846;BME280;34665;51.886;5.436;2022-11-20T03:00:00;101144.31;;;2.19;100.00
48846;BME280;34665;51.886;5.436;2022-11-20T03:02:29;101137.63;;;1.83;100.00
48846;BME280;34665;51.886;5.436;2022-11-20T03:04:55;101126.44;;;1.70;100.00
48846;BME280;34665;51.886;5.436;2022-11-20T03:07:21;101120.75;;;1.65;100.00
48846;BME280;34665;51.886;5.436;2022-11-20T03:09:46;101120.69;;;1.55;100.00
48846;BME280;34665;51.886;5.436;2022-11-20T03:12:12;101118.16;;;1.53;100.00
48846;BME280;34665;51.886;5.436;2022-11-20T03:14:38;101118.47;;;1.60;100.00
48846;BME280;34665;51.886;5.436;2022-11-20T03:17:04;101119.28;;;1.51;100.00
48846;BME280;34665;51.886;5.436;2022-11-20T03:19:30;101111.84;;;1.45;100.00
48846;BME280;34665;51.886;5.436;2022-11-20T03:21:56;101104.66;;;1.47;100.00
48846;BME280;34665;51.886;5.436;2022-11-20T03:24:22;101107.69;;;1.42;100.00
48846;BME280;34665;51.886;5.436;2022-11-20T03:26:47;101116.78;;;0.95;100.00
48846;BME280;34665;51.886;5.436;2022-11-20T03:29:12;101110.25;;;1.53;100.00
48846;BME280;34665;51.886;5.436;2022-11-20T03:31:39;101106.28;;;1.59;100.00
48846;BME280;34665;51.886;5.436;2022-11-20T03:34:10;101098.34;;;1.59;100.00
48846;BME280;34665;51.886;5.436;2022-11-20T03:36:41;101103.03;;;1.55;100.00
48846;BME280;34665;51.886;5.436;2022-11-20T03:39:08;101101.63;;;1.51;100.00
48846;BME280;34665;51.886;5.436;2022-11-20T03:41:38;101105.06;;;1.42;100.00
48846;BME280;34665;51.886;5.436;2022-11-20T03:44:06;101093.94;;;1.38;100.00
48846;BME280;34665;51.886;5.436;2022-11-20T03:46:33;101090.59;;;1.36;100.00
48846;BME280;34665;51.886;5.436;2022-11-20T03:49:00;101096.13;;;1.33;100.00
48846;BME280;34665;51.886;5.436;2022-11-20T03:51:27;101096.94;;;1.34;100.00
48846;BME280;34665;51.886;5.436;2022-11-20T03:53:55;101092.31;;;1.47;100.00
48846;BME280;34665;51.886;5.436;2022-11-20T03:56:30;101092.78;;;1.31;100.00
48846;BME280;34665;51.886;5.436;2022-11-20T03:58:56;101077.34;;;1.26;100.00
48846;BME280;34665;51.886;5.436;2022-11-20T04:01:25;101079.28;;;1.24;100.00
48846;BME280;34665;51.886;5.436;2022-11-20T04:03:53;101079.72;;;1.29;100.00
48846;BME280;34665;51.886;5.436;2022-11-20T04:06:24;101079.84;;;1.07;100.00
48846;BME280;34665;51.886;5.436;2022-11-20T04:08:50;101078.00;;;0.86;100.00
48846;BME280;34665;51.886;5.436;2022-11-20T04:11:24;101073.78;;;0.95;100.00
48846;BME280;34665;51.886;5.436;2022-11-20T04:13:53;101071.75;;;1.20;100.00
48846;BME280;34665;51.886;5.436;2022-11-20T04:16:20;101068.34;;;1.29;100.00
48846;BME280;34665;51.886;5.436;2022-11-20T04:18:46;101060.31;;;1.31;100.00
48846;BME280;34665;51.886;5.436;2022-11-20T04:21:12;101056.44;;;1.35;100.00
48846;BME280;34665;51.886;5.436;2022-11-20T04:23:38;101053.97;;;1.33;100.00
48846;BME280;34665;51.886;5.436;2022-11-20T04:26:11;101052.84;;;1.36;100.00
48846;BME280;34665;51.886;5.436;2022-11-20T04:28:37;101046.44;;;1.28;100.00
48846;BME280;34665;51.886;5.436;2022-11-20T04:31:14;101052.78;;;1.26;100.00
48846;BME280;34665;51.886;5.436;2022-11-20T04:33:41;101054.09;;;1.10;100.00
48846;BME280;34665;51.886;5.436;2022-11-20T04:36:13;101053.88;;;1.02;100.00
48846;BME280;34665;51.886;5.436;2022-11-20T04:38:40;101056.34;;;1.36;100.00
48846;BME280;34665;51.886;5.436;2022-11-20T04:41:07;101051.59;;;1.30;100.00
48846;BME280;34665;51.886;5.436;2022-11-20T04:43:33;101053.81;;;1.35;100.00
48846;BME280;34665;51.886;5.436;2022-11-20T04:46:00;101050.81;;;1.18;100.00
48846;BME280;34665;51.886;5.436;2022-11-20T04:48:27;101052.13;;;1.34;100.00
48846;BME280;34665;51.886;5.436;2022-11-20T04:50:53;101049.44;;;1.45;100.00
48846;BME280;34665;51.886;5.436;2022-11-20T04:53:19;101046.88;;;1.34;100.00
48846;BME280;34665;51.886;5.436;2022-11-20T04:55:45;101056.31;;;1.89;100.00
48846;BME280;34665;51.886;5.436;2022-11-20T04:58:10;101052.75;;;1.99;100.00
48846;BME280;34665;51.886;5.436;2022-11-20T05:00:36;101050.41;;;1.44;100.00
48846;BME280;34665;51.886;5.436;2022-11-20T05:03:02;101051.31;;;1.33;100.00
48846;BME280;34665;51.886;5.436;2022-11-20T05:05:29;101043.63;;;1.20;100.00
48846;BME280;34665;51.886;5.436;2022-11-20T05:07:58;101042.00;;;1.29;100.00
48846;BME280;34665;51.886;5.436;2022-11-20T05:10:25;101034.75;;;1.21;100.00
48846;BME280;34665;51.886;5.436;2022-11-20T05:12:52;101029.59;;;1.20;100.00
48846;BME280;34665;51.886;5.436;2022-11-20T05:15:18;101018.47;;;1.37;100.00
48846;BME280;34665;51.886;5.436;2022-11-20T05:17:50;101016.97;;;1.45;100.00
48846;BME280;34665;51.886;5.436;2022-11-20T05:20:17;101014.00;;;1.38;100.00
48846;BME280;34665;51.886;5.436;2022-11-20T05:22:43;101020.84;;;1.40;100.00
48846;BME280;34665;51.886;5.436;2022-11-20T05:25:09;101026.50;;;1.36;100.00
48846;BME280;34665;51.886;5.436;2022-11-20T05:27:35;101012.88;;;1.31;100.00
48846;BME280;34665;51.886;5.436;2022-11-20T05:30:00;101011.84;;;1.43;100.00
48846;BME280;34665;51.886;5.436;2022-11-20T05:32:26;101011.59;;;1.46;100.00
48846;BME280;34665;51.886;5.436;2022-11-20T05:34:52;101014.75;;;1.50;100.00
48846;BME280;34665;51.886;5.436;2022-11-20T05:37:17;101017.38;;;1.40;100.00
48846;BME280;34665;51.886;5.436;2022-11-20T05:39:43;101007.16;;;1.25;100.00
48846;BME280;34665;51.886;5.436;2022-11-20T05:42:08;101007.34;;;1.34;100.00
48846;BME280;34665;51.886;5.436;2022-11-20T05:44:53;101012.94;;;1.40;100.00
48846;BME280;34665;51.886;5.436;2022-11-20T05:47:19;101012.50;;;1.35;100.00
48846;BME280;34665;51.886;5.436;2022-11-20T05:49:45;101015.84;;;1.37;100.00
48846;BME280;34665;51.886;5.436;2022-11-20T05:52:11;101022.47;;;1.10;100.00
48846;BME280;34665;51.886;5.436;2022-11-20T05:54:36;101024.00;;;1.13;100.00
48846;BME280;34665;51.886;5.436;2022-11-20T05:57:02;101026.34;;;1.06;100.00
48846;BME280;34665;51.886;5.436;2022-11-20T05:59:28;101025.78;;;1.34;100.00
48846;BME280;34665;51.886;5.436;2022-11-20T06:01:53;101037.50;;;1.41;100.00
48846;BME280;34665;51.886;5.436;2022-11-20T06:04:19;101046.06;;;1.33;100.00
48846;BME280;34665;51.886;5.436;2022-11-20T06:06:44;101051.63;;;1.19;100.00
48846;BME280;34665;51.886;5.436;2022-11-20T06:09:10;101050.22;;;1.36;100.00
48846;BME280;34665;51.886;5.436;2022-11-20T06:11:36;101043.97;;;1.37;100.00
48846;BME280;34665;51.886;5.436;2022-11-20T06:14:02;101044.66;;;1.29;100.00
48846;BME280;34665;51.886;5.436;2022-11-20T06:16:27;101048.66;;;1.12;100.00
48846;BME280;34665;51.886;5.436;2022-11-20T06:18:53;101051.00;;;1.05;100.00
48846;BME280;34665;51.886;5.436;2022-11-20T06:21:20;101057.28;;;1.35;100.00
48846;BME280;34665;51.886;5.436;2022-11-20T06:23:47;101054.31;;;1.50;100.00
48846;BME280;34665;51.886;5.436;2022-11-20T06:26:24;101045.47;;;1.29;100.00
48846;BME280;34665;51.886;5.436;2022-11-20T06:28:50;101040.47;;;1.26;100.00
48846;BME280;34665;51.886;5.436;2022-11-20T06:31:19;101037.63;;;1.39;100.00
48846;BME280;34665;51.886;5.436;2022-11-20T06:33:45;101037.03;;;1.36;100.00
48846;BME280;34665;51.886;5.436;2022-11-20T06:36:13;101024.88;;;1.45;100.00
48846;BME280;34665;51.886;5.436;2022-11-20T06:38:39;101031.06;;;1.34;100.00
48846;BME280;34665;51.886;5.436;2022-11-20T06:41:07;101041.53;;;1.45;100.00
48846;BME280;34665;51.886;5.436;2022-11-20T06:43:35;101049.38;;;1.35;100.00
48846;BME280;34665;51.886;5.436;2022-11-20T06:46:00;101045.91;;;1.35;100.00
48846;BME280;34665;51.886;5.436;2022-11-20T06:48:27;101045.69;;;1.48;100.00
48846;BME280;34665;51.886;5.436;2022-11-20T06:50:53;101039.94;;;1.54;100.00
48846;BME280;34665;51.886;5.436;2022-11-20T06:53:19;101040.47;;;1.57;100.00
48846;BME280;34665;51.886;5.436;2022-11-20T06:55:46;101033.47;;;1.47;100.00
48846;BME280;34665;51.886;5.436;2022-11-20T06:58:13;101039.16;;;1.42;100.00
48846;BME280;34665;51.886;5.436;2022-11-20T07:00:39;101021.84;;;1.49;100.00
48846;BME280;34665;51.886;5.436;2022-11-20T07:03:06;101020.88;;;1.50;100.00
48846;BME280;34665;51.886;5.436;2022-11-20T07:05:32;101020.56;;;1.65;100.00
48846;BME280;34665;51.886;5.436;2022-11-20T07:07:58;101016.13;;;1.75;100.00
48846;BME280;34665;51.886;5.436;2022-11-20T07:10:24;101021.84;;;1.80;100.00
48846;BME280;34665;51.886;5.436;2022-11-20T07:12:54;101019.91;;;1.82;100.00
48846;BME280;34665;51.886;5.436;2022-11-20T07:15:22;101018.66;;;1.77;100.00
48846;BME280;34665;51.886;5.436;2022-11-20T07:17:48;101013.53;;;1.85;100.00
48846;BME280;34665;51.886;5.436;2022-11-20T07:20:14;101016.16;;;1.85;100.00
48846;BME280;34665;51.886;5.436;2022-11-20T07:22:41;101008.66;;;1.80;100.00
48846;BME280;34665;51.886;5.436;2022-11-20T07:25:08;101015.75;;;1.80;100.00
48846;BME280;34665;51.886;5.436;2022-11-20T07:27:34;101017.53;;;1.79;100.00
48846;BME280;34665;51.886;5.436;2022-11-20T07:29:59;101011.16;;;1.82;100.00
48846;BME280;34665;51.886;5.436;2022-11-20T07:32:25;101016.16;;;1.85;100.00
48846;BME280;34665;51.886;5.436;2022-11-20T07:34:52;101018.38;;;1.80;100.00
48846;BME280;34665;51.886;5.436;2022-11-20T07:37:18;101018.97;;;1.93;100.00
48846;BME280;34665;51.886;5.436;2022-11-20T07:39:43;101021.47;;;1.95;100.00
48846;BME280;34665;51.886;5.436;2022-11-20T07:42:09;101024.84;;;2.07;100.00
48846;BME280;34665;51.886;5.436;2022-11-20T07:44:36;101022.22;;;2.07;100.00
48846;BME280;34665;51.886;5.436;2022-11-20T07:47:03;101021.53;;;2.14;100.00
48846;BME280;34665;51.886;5.436;2022-11-20T07:49:28;101027.13;;;2.21;100.00
48846;BME280;34665;51.886;5.436;2022-11-20T07:51:54;101032.50;;;2.20;100.00
48846;BME280;34665;51.886;5.436;2022-11-20T07:54:22;101029.88;;;2.20;100.00
48846;BME280;34665;51.886;5.436;2022-11-20T07:56:48;101036.28;;;2.27;100.00
48846;BME280;34665;51.886;5.436;2022-11-20T07:59:14;101030.88;;;2.28;100.00
48846;BME280;34665;51.886;5.436;2022-11-20T08:01:41;101032.66;;;2.28;100.00
48846;BME280;34665;51.886;5.436;2022-11-20T08:04:08;101031.44;;;2.52;100.00
48846;BME280;34665;51.886;5.436;2022-11-20T08:06:35;101022.72;;;2.61;100.00
48846;BME280;34665;51.886;5.436;2022-11-20T08:09:00;101023.81;;;2.88;100.00
48846;BME280;34665;51.886;5.436;2022-11-20T08:11:26;101025.59;;;2.97;100.00
48846;BME280;34665;51.886;5.436;2022-11-20T08:14:10;101016.41;;;3.11;100.00
48846;BME280;34665;51.886;5.436;2022-11-20T08:16:44;101014.19;;;3.07;100.00
48846;BME280;34665;51.886;5.436;2022-11-20T08:19:11;101014.50;;;3.04;100.00
48846;BME280;34665;51.886;5.436;2022-11-20T08:21:37;101011.47;;;2.79;100.00
48846;BME280;34665;51.886;5.436;2022-11-20T08:24:03;101013.25;;;2.98;100.00
48846;BME280;34665;51.886;5.436;2022-11-20T08:26:28;101012.28;;;2.79;100.00
48846;BME280;34665;51.886;5.436;2022-11-20T08:28:56;101013.94;;;2.70;100.00
48846;BME280;34665;51.886;5.436;2022-11-20T08:31:24;101013.25;;;2.68;100.00
48846;BME280;34665;51.886;5.436;2022-11-20T08:33:50;101021.59;;;2.73;100.00
48846;BME280;34665;51.886;5.436;2022-11-20T08:36:16;101014.06;;;2.39;100.00
48846;BME280;34665;51.886;5.436;2022-11-20T08:38:42;101021.84;;;2.61;100.00
48846;BME280;34665;51.886;5.436;2022-11-20T08:41:11;101011.56;;;2.97;100.00
48846;BME280;34665;51.886;5.436;2022-11-20T08:44:06;101012.81;;;3.12;100.00
48846;BME280;34665;51.886;5.436;2022-11-20T08:46:39;101024.00;;;3.34;100.00
48846;BME280;34665;51.886;5.436;2022-11-20T08:49:07;101004.63;;;3.53;100.00
48846;BME280;34665;51.886;5.436;2022-11-20T08:51:34;101011.28;;;3.57;100.00
48846;BME280;34665;51.886;5.436;2022-11-20T08:54:00;101011.56;;;3.54;100.00
48846;BME280;34665;51.886;5.436;2022-11-20T08:56:26;101005.72;;;3.51;100.00
48846;BME280;34665;51.886;5.436;2022-11-20T08:58:52;101017.03;;;3.43;100.00
48846;BME280;34665;51.886;5.436;2022-11-20T09:01:22;101023.88;;;3.36;100.00
48846;BME280;34665;51.886;5.436;2022-11-20T09:03:49;101018.19;;;3.30;100.00
48846;BME280;34665;51.886;5.436;2022-11-20T09:06:15;101012.34;;;3.65;100.00
48846;BME280;34665;51.886;5.436;2022-11-20T09:08:43;101007.03;;;3.75;100.00
48846;BME280;34665;51.886;5.436;2022-11-20T09:11:09;101006.75;;;3.68;100.00
48846;BME280;34665;51.886;5.436;2022-11-20T09:13:36;101002.63;;;3.93;100.00
48846;BME280;34665;51.886;5.436;2022-11-20T09:16:05;100993.22;;;3.81;100.00
48846;BME280;34665;51.886;5.436;2022-11-20T09:18:31;100985.97;;;4.29;100.00
48846;BME280;34665;51.886;5.436;2022-11-20T09:21:03;100989.88;;;4.61;100.00
48846;BME280;34665;51.886;5.436;2022-11-20T09:23:35;100983.44;;;4.82;100.00
48846;BME280;34665;51.886;5.436;2022-11-20T09:26:03;100984.66;;;4.87;100.00
48846;BME280;34665;51.886;5.436;2022-11-20T09:28:29;100967.69;;;5.07;100.00
48846;BME280;34665;51.886;5.436;2022-11-20T09:30:55;100978.22;;;5.16;100.00
48846;BME280;34665;51.886;5.436;2022-11-20T09:33:20;100969.25;;;5.17;100.00
48846;BME280;34665;51.886;5.436;2022-11-20T09:35:45;100963.94;;;5.44;100.00
48846;BME280;34665;51.886;5.436;2022-11-20T09:38:11;100975.69;;;5.41;100.00
48846;BME280;34665;51.886;5.436;2022-11-20T09:40:44;100978.69;;;5.12;100.00
48846;BME280;34665;51.886;5.436;2022-11-20T09:43:19;100975.44;;;7.37;100.00
48846;BME280;34665;51.886;5.436;2022-11-20T09:46:21;100978.72;;;7.95;100.00
48846;BME280;34665;51.886;5.436;2022-11-20T09:49:01;100972.25;;;8.44;100.00
48846;BME280;34665;51.886;5.436;2022-11-20T09:51:46;100963.84;;;8.09;100.00
48846;BME280;34665;51.886;5.436;2022-11-20T09:54:19;100969.53;;;8.53;100.00
48846;BME280;34665;51.886;5.436;2022-11-20T09:57:00;100978.59;;;8.43;100.00
48846;BME280;34665;51.886;5.436;2022-11-20T09:59:41;100977.63;;;8.68;100.00
48846;BME280;34665;51.886;5.436;2022-11-20T10:07:41;100958.59;;;7.93;100.00
48846;BME280;34665;51.886;5.436;2022-11-20T10:10:45;100952.38;;;8.55;100.00
48846;BME280;34665;51.886;5.436;2022-11-20T10:18:52;100938.03;;;9.10;100.00
48846;BME280;34665;51.886;5.436;2022-11-20T10:21:27;100938.63;;;8.43;100.00
48846;BME280;34665;51.886;5.436;2022-11-20T10:24:24;100928.75;;;9.06;100.00
48846;BME280;34665;51.886;5.436;2022-11-20T10:29:33;100917.28;;;7.97;100.00
48846;BME280;34665;51.886;5.436;2022-11-20T10:32:04;100918.13;;;8.21;100.00
48846;BME280;34665;51.886;5.436;2022-11-20T10:37:18;100911.09;;;8.51;100.00
48846;BME280;34665;51.886;5.436;2022-11-20T10:42:43;100892.09;;;8.08;100.00
48846;BME280;34665;51.886;5.436;2022-11-20T10:45:19;100880.72;;;8.14;100.00
48846;BME280;34665;51.886;5.436;2022-11-20T10:47:47;100873.59;;;8.29;100.00
48846;BME280;34665;51.886;5.436;2022-11-20T10:50:18;100865.94;;;8.11;100.00
48846;BME280;34665;51.886;5.436;2022-11-20T10:55:47;100845.81;;;8.47;100.00
48846;BME280;34665;51.886;5.436;2022-11-20T11:01:14;100832.28;;;8.49;100.00
48846;BME280;34665;51.886;5.436;2022-11-20T11:03:41;100827.41;;;8.37;100.00
48846;BME280;34665;51.886;5.436;2022-11-20T11:06:21;100821.06;;;8.77;100.00
48846;BME280;34665;51.886;5.436;2022-11-20T11:08:51;100817.06;;;9.54;100.00
48846;BME280;34665;51.886;5.436;2022-11-20T11:11:27;100814.19;;;9.78;100.00
48846;BME280;34665;51.886;5.436;2022-11-20T11:14:04;100816.56;;;9.87;100.00
48846;BME280;34665;51.886;5.436;2022-11-20T11:16:31;100812.34;;;10.22;100.00
48846;BME280;34665;51.886;5.436;2022-11-20T11:19:07;100804.81;;;9.82;100.00
48846;BME280;34665;51.886;5.436;2022-11-20T11:21:37;100803.34;;;9.57;100.00
48846;BME280;34665;51.886;5.436;2022-11-20T11:24:20;100795.97;;;9.81;100.00
48846;BME280;34665;51.886;5.436;2022-11-20T11:27:04;100801.06;;;9.76;100.00
48846;BME280;34665;51.886;5.436;2022-11-20T11:29:35;100800.59;;;9.14;100.00
48846;BME280;34665;51.886;5.436;2022-11-20T11:32:08;100804.16;;;9.36;100.00
48846;BME280;34665;51.886;5.436;2022-11-20T11:34:34;100791.19;;;9.18;100.00
48846;BME280;34665;51.886;5.436;2022-11-20T11:37:01;100782.75;;;9.14;100.00
48846;BME280;34665;51.886;5.436;2022-11-20T11:39:30;100786.97;;;9.45;100.00
48846;BME280;34665;51.886;5.436;2022-11-20T11:41:57;100780.44;;;9.48;100.00
48846;BME280;34665;51.886;5.436;2022-11-20T11:44:32;100780.91;;;9.15;100.00
48846;BME280;34665;51.886;5.436;2022-11-20T11:47:25;100774.84;;;9.43;100.00
48846;BME280;34665;51.886;5.436;2022-11-20T11:50:28;100770.16;;;8.93;100.00
48846;BME280;34665;51.886;5.436;2022-11-20T11:53:07;100774.75;;;9.14;100.00
48846;BME280;34665;51.886;5.436;2022-11-20T11:55:42;100766.25;;;9.26;100.00
48846;BME280;34665;51.886;5.436;2022-11-20T11:58:16;100765.50;;;8.65;100.00
48846;BME280;34665;51.886;5.436;2022-11-20T12:00:51;100757.13;;;8.83;100.00
48846;BME280;34665;51.886;5.436;2022-11-20T12:03:38;100747.78;;;8.04;100.00
48846;BME280;34665;51.886;5.436;2022-11-20T12:06:16;100745.06;;;7.51;100.00
48846;BME280;34665;51.886;5.436;2022-11-20T12:09:02;100729.31;;;7.87;100.00
48846;BME280;34665;51.886;5.436;2022-11-20T12:14:26;100726.31;;;7.44;100.00
48846;BME280;34665;51.886;5.436;2022-11-20T12:16:53;100719.47;;;8.56;100.00
48846;BME280;34665;51.886;5.436;2022-11-20T12:19:21;100719.78;;;8.83;100.00
48846;BME280;34665;51.886;5.436;2022-11-20T12:22:09;100711.00;;;8.53;100.00
48846;BME280;34665;51.886;5.436;2022-11-20T12:25:20;100715.84;;;8.34;100.00
48846;BME280;34665;51.886;5.436;2022-11-20T12:30:17;100689.38;;;8.17;100.00
48846;BME280;34665;51.886;5.436;2022-11-20T12:38:43;100641.97;;;9.38;100.00
48846;BME280;34665;51.886;5.436;2022-11-20T12:41:56;100642.09;;;9.30;100.00
48846;BME280;34665;51.886;5.436;2022-11-20T12:55:56;100639.94;;;9.18;100.00
48846;BME280;34665;51.886;5.436;2022-11-20T12:58:41;100629.97;;;9.06;100.00
48846;BME280;34665;51.886;5.436;2022-11-20T13:01:36;100626.22;;;9.22;100.00
48846;BME280;34665;51.886;5.436;2022-11-20T13:07:12;100628.16;;;9.35;100.00
48846;BME280;34665;51.886;5.436;2022-11-20T13:09:40;100635.88;;;10.08;100.00
48846;BME280;34665;51.886;5.436;2022-11-20T13:17:46;100612.25;;;9.20;100.00
48846;BME280;34665;51.886;5.436;2022-11-20T13:20:18;100611.25;;;9.49;100.00
48846;BME280;34665;51.886;5.436;2022-11-20T13:22:46;100600.63;;;9.91;100.00
48846;BME280;34665;51.886;5.436;2022-11-20T13:27:49;100586.22;;;9.50;100.00
48846;BME280;34665;51.886;5.436;2022-11-20T13:30:20;100566.28;;;9.46;100.00
48846;BME280;34665;51.886;5.436;2022-11-20T13:32:52;100563.81;;;9.86;100.00
48846;BME280;34665;51.886;5.436;2022-11-20T13:35:36;100560.69;;;9.76;100.00
48846;BME280;34665;51.886;5.436;2022-11-20T13:38:08;100561.69;;;9.40;100.00
48846;BME280;34665;51.886;5.436;2022-11-20T13:40:37;100549.28;;;9.25;100.00
48846;BME280;34665;51.886;5.436;2022-11-20T13:43:42;100546.34;;;8.92;100.00
48846;BME280;34665;51.886;5.436;2022-11-20T13:46:09;100537.13;;;8.72;100.00
48846;BME280;34665;51.886;5.436;2022-11-20T13:48:41;100542.13;;;8.82;100.00
48846;BME280;34665;51.886;5.436;2022-11-20T13:54:13;100530.00;;;9.01;100.00
48846;BME280;34665;51.886;5.436;2022-11-20T13:56:53;100521.88;;;8.88;100.00
48846;BME280;34665;51.886;5.436;2022-11-20T14:01:53;100524.53;;;9.10;100.00
48846;BME280;34665;51.886;5.436;2022-11-20T14:04:26;100501.78;;;9.14;100.00
48846;BME280;34665;51.886;5.436;2022-11-20T14:06:52;100503.91;;;8.97;100.00
48846;BME280;34665;51.886;5.436;2022-11-20T14:09:29;100501.88;;;9.63;100.00
48846;BME280;34665;51.886;5.436;2022-11-20T14:11:55;100512.00;;;9.74;100.00